Map

Track Data

SID SEASON NUMBER BASIN SUBBASIN NAME ISO_TIME NATURE LAT LON WMO_WIND WMO_PRES WMO_AGENCY TRACK_TYPE DIST2LAND LANDFALL IFLAG USA_AGENCY USA_ATCF_ID USA_LAT USA_LON USA_RECORD USA_STATUS USA_WIND USA_PRES USA_SSHS USA_R34_NE USA_R34_SE USA_R34_SW USA_R34_NW USA_R50_NE USA_R50_SE USA_R50_SW USA_R50_NW USA_R64_NE USA_R64_SE USA_R64_SW USA_R64_NW USA_POCI USA_ROCI USA_RMW USA_EYE TOKYO_LAT TOKYO_LON TOKYO_GRADE TOKYO_WIND TOKYO_PRES TOKYO_R50_DIR TOKYO_R50_LONG TOKYO_R50_SHORT TOKYO_R30_DIR TOKYO_R30_LONG TOKYO_R30_SHORT TOKYO_LAND CMA_LAT CMA_LON CMA_CAT CMA_WIND CMA_PRES HKO_LAT HKO_LON HKO_CAT HKO_WIND HKO_PRES NEWDELHI_LAT NEWDELHI_LON NEWDELHI_GRADE NEWDELHI_WIND NEWDELHI_PRES NEWDELHI_CI NEWDELHI_DP NEWDELHI_POCI REUNION_LAT REUNION_LON REUNION_TYPE REUNION_WIND REUNION_PRES REUNION_TNUM REUNION_CI REUNION_RMW REUNION_R34_NE REUNION_R34_SE REUNION_R34_SW REUNION_R34_NW REUNION_R50_NE REUNION_R50_SE REUNION_R50_SW REUNION_R50_NW REUNION_R64_NE REUNION_R64_SE REUNION_R64_SW REUNION_R64_NW BOM_LAT BOM_LON BOM_TYPE BOM_WIND BOM_PRES BOM_TNUM BOM_CI BOM_RMW BOM_R34_NE BOM_R34_SE BOM_R34_SW BOM_R34_NW BOM_R50_NE BOM_R50_SE BOM_R50_SW BOM_R50_NW BOM_R64_NE BOM_R64_SE BOM_R64_SW BOM_R64_NW BOM_ROCI BOM_POCI BOM_EYE BOM_POS_METHOD BOM_PRES_METHOD NADI_LAT NADI_LON NADI_CAT NADI_WIND NADI_PRES WELLINGTON_LAT WELLINGTON_LON WELLINGTON_WIND WELLINGTON_PRES DS824_LAT DS824_LON DS824_STAGE DS824_WIND DS824_PRES TD9636_LAT TD9636_LON TD9636_STAGE TD9636_WIND TD9636_PRES TD9635_LAT TD9635_LON TD9635_WIND TD9635_PRES TD9635_ROCI NEUMANN_LAT NEUMANN_LON NEUMANN_CLASS NEUMANN_WIND NEUMANN_PRES MLC_LAT MLC_LON MLC_CLASS MLC_WIND MLC_PRES USA_GUST BOM_GUST BOM_GUST_PER REUNION_GUST REUNION_GUST_PER USA_SEAHGT USA_SEARAD_NE USA_SEARAD_SE USA_SEARAD_SW USA_SEARAD_NW STORM_SPEED STORM_DIR
1977292N11063 1977 102 NI AS NOT_NAMED 1977-10-19 00:00:00 TS 10.6000 63.0000 main 953 826 O________OO___ jtwc_io IO031977 10.6000 63.0000 -1 10.6000 63.0000 TC 25 10.6000 63.0000 1 25 268
1977292N11063 1977 102 NI AS NOT_NAMED 1977-10-19 03:00:00 TS 10.5486 61.7280 main 819 705 P________PP___ IO031977 10.5339 61.6772 -1 10.5339 61.6772 TC 25 10.5779 61.8295 1 24 268
1977292N11063 1977 102 NI AS NOT_NAMED 1977-10-19 06:00:00 TS 10.5209 60.5723 main 705 613 O________OP___ jtwc_io IO031977 10.5000 60.5000 -1 10.5000 60.5000 TC 25 10.5626 60.7169 1 21 270
1977292N11063 1977 102 NI AS NOT_NAMED 1977-10-19 09:00:00 TS 10.5399 59.6272 main 603 529 P________PP___ IO031977 10.5270 59.5802 -1 10.5270 59.5802 TC 25 10.5658 59.7210 1 16 273
1977292N11063 1977 102 NI AS NOT_NAMED 1977-10-19 12:00:00 TS 10.6000 58.9000 main 529 475 O________OO___ jtwc_io IO031977 10.6000 58.9000 -1 10.6000 58.9000 TC 25 10.6000 58.9000 1 13 277
1977292N11063 1977 102 NI AS NOT_NAMED 1977-10-19 15:00:00 TS 10.6859 58.3569 main 475 431 P________PP___ IO031977 10.6922 58.3900 -1 10.6922 58.3900 TC 25 10.6734 58.2908 1 10 282
1977292N11063 1977 102 NI AS NOT_NAMED 1977-10-19 18:00:00 TS 10.7917 57.9494 main 421 387 O________OP___ jtwc_io IO031977 10.8000 58.0000 -1 10.8000 58.0000 TC 25 10.7752 57.8481 1 8 285
1977292N11063 1977 102 NI AS NOT_NAMED 1977-10-19 21:00:00 TS 10.8965 57.5587 main 387 344 P________PP___ IO031977 10.8999 57.5850 -1 10.8999 57.5850 TC 25 10.8896 57.5063 1 8 286
1977292N11063 1977 102 NI AS NOT_NAMED 1977-10-20 00:00:00 TS 11.0000 57.2000 main 344 301 O________OO___ jtwc_io IO031977 11.0000 57.2000 -1 11.0000 57.2000 TC 25 11.0000 57.2000 1 7 286
1977292N11063 1977 102 NI AS NOT_NAMED 1977-10-20 03:00:00 TS 11.1004 56.8256 main 301 268 P________PP___ IO031977 11.1074 56.8425 -1 11.1074 56.8425 TC 25 11.0862 56.7919 1 7 285
1977292N11063 1977 102 NI AS NOT_NAMED 1977-10-20 06:00:00 TS 11.1883 56.4700 main 268 234 O________OP___ jtwc_io IO031977 11.2000 56.5000 -1 11.2000 56.5000 TC 25 11.1650 56.4100 1 7 282
1977292N11063 1977 102 NI AS NOT_NAMED 1977-10-20 09:00:00 TS 11.2505 56.0994 main 227 203 P________PP___ IO031977 11.2576 56.1125 -1 11.2576 56.1125 TC 30 11.2363 56.0731 1 7 280
1977292N11063 1977 102 NI AS NOT_NAMED 1977-10-20 12:00:00 TS 11.3000 55.8000 main 203 195 O________OO___ jtwc_io IO031977 11.3000 55.8000 -1 11.3000 55.8000 TC 35 11.3000 55.8000 2 4 283
1977292N11063 1977 102 NI AS NOT_NAMED 1977-10-20 15:00:00 TS 11.3481 55.6689 main 195 179 P________PP___ IO031977 11.3499 55.6700 -1 11.3499 55.6700 TC 35 11.3444 55.6669 2 2 295
1977292N11063 1977 102 NI AS NOT_NAMED 1977-10-20 18:00:00 TS 11.3947 55.5957 main 179 172 O________OP___ jtwc_io IO031977 11.4000 55.6000 -1 11.4000 55.6000 TC 35 11.3842 55.5871 2 2 299
1977292N11063 1977 102 NI AS NOT_NAMED 1977-10-20 21:00:00 TS 11.4389 55.4979 main 172 150 P________PP___ IO031977 11.4424 55.5024 -1 11.4424 55.5024 TC 35 11.4319 55.4887 2 3 290
1977292N11063 1977 102 NI AS NOT_NAMED 1977-10-21 00:00:00 TS 11.5000 55.3000 main 150 120 O________OO___ jtwc_io IO031977 11.5000 55.3000 -1 11.5000 55.3000 TC 35 11.5000 55.3000 2 6 285
1977292N11063 1977 102 NI AS NOT_NAMED 1977-10-21 03:00:00 TS 11.5914 54.9008 main 120 80 P________PP___ IO031977 11.5851 54.9025 -1 11.5851 54.9025 TC 30 11.6041 54.8974 2 9 283
1977292N11063 1977 102 NI AS NOT_NAMED 1977-10-21 06:00:00 TS 11.7095 54.4010 main 80 55 O________OP___ jtwc_io IO031977 11.7000 54.4000 -1 11.7000 54.4000 TC 25 11.7284 54.4028 2 10 285
1977292N11063 1977 102 NI AS NOT_NAMED 1977-10-21 09:00:00 TS 11.8545 53.8790 main 44 35 P________PP___ IO031977 11.8501 53.8776 -1 11.8501 53.8776 TC 25 11.8635 53.8818 2 10 287
1977292N11063 1977 102 NI AS NOT_NAMED 1977-10-21 12:00:00 TS 12.0000 53.4000 main 40 40 O________OO___ jtwc_io IO031977 12.0000 53.4000 -1 12.0000 53.4000 TC 25 12.0000 53.4000 1 8 288
1977292N11063 1977 102 NI AS NOT_NAMED 1977-10-21 15:00:00 TS 12.1053 53.0752 main 49 46 P________PP___ IO031977 12.0998 53.0699 -1 12.0998 53.0699 TC 25 12.1161 53.0858 1 6 290
1977292N11063 1977 102 NI AS NOT_NAMED 1977-10-21 18:00:00 TS 12.2113 52.8048 main 63 63 O________OP___ jtwc_io IO031977 12.2000 52.8000 -1 12.2000 52.8000 TC 25 12.2339 52.8144 1 6 294
1977292N11063 1977 102 NI AS NOT_NAMED 1977-10-21 21:00:00 TS 12.3482 52.5269 main 89 87 P________PP___ IO031977 12.3424 52.5224 -1 12.3424 52.5224 TC 25 12.3598 52.5358 1 7 296
1977292N11063 1977 102 NI AS NOT_NAMED 1977-10-22 00:00:00 TS 12.5000 52.2000 main 119 104 O________OO___ jtwc_io IO031977 12.5000 52.2000 -1 12.5000 52.2000 TC 25 12.5000 52.2000 1 8 293
1977292N11063 1977 102 NI AS NOT_NAMED 1977-10-22 03:00:00 TS 12.6478 51.7865 main 104 103 P________PP___ IO031977 12.6424 51.7949 -1 12.6424 51.7949 TC 25 12.6585 51.7697 1 9 289
1977292N11063 1977 102 NI AS NOT_NAMED 1977-10-22 06:00:00 TS 12.8106 51.2862 main 105 103 O________OP___ jtwc_io IO031977 12.8000 51.3000 -1 12.8000 51.3000 TC 25 12.8317 51.2585 1 11 289
1977292N11063 1977 102 NI AS NOT_NAMED 1977-10-22 09:00:00 TS 12.9982 50.7129 main 123 123 P________PP___ IO031977 12.9903 50.7228 -1 12.9903 50.7228 TC 25 13.0140 50.6931 1 12 289
1977292N11063 1977 102 NI AS NOT_NAMED 1977-10-22 12:00:00 TS 13.2000 50.1000 main 155 O________OO___ jtwc_io IO031977 13.2000 50.1000 -1 13.2000 50.1000 TC 25 13.2000 50.1000 1 13 289

About IBTrACS Database

This database is a web-friendly format of International Best Track Archive for Climate Stewardship (IBTrACS), a global best track data archive curated by NOAA dating back to 1842.

Updated: 2021-12-06